Time;durP1;ratioP1;P1;durP2;ratioP2;P2;SDS_P1;SDS_P2;PMS_P1;PMS_P2;Temp;Humidity;BMP_temperature;BMP_pressure;BME280_temperature;BME280_humidity;BME280_pressure;Samples;Min_cycle;Max_cycle;Signal;HPM_P1;HPM_P2
2021/07/26 00:00:26;;;;;;;4.55;4.15;;;;;;;;;;2098651;28;20199;-58
2021/07/26 00:01:26;;;;;;;4.78;4.40;;;;;;;;;;2097813;28;20201;-60
2021/07/26 00:02:26;;;;;;;6.05;4.90;;;;;;;;;;2097957;28;20217;-59
2021/07/26 00:03:27;;;;;;;4.07;3.72;;;;;;;;;;2093863;28;20414;-58
2021/07/26 00:04:27;;;;;;;4.60;4.28;;;;;;;;;;2097492;28;20274;-54
2021/07/26 00:05:27;;;;;;;5.25;4.63;;;;;;;;;;2095690;28;20180;-57
2021/07/26 00:06:27;;;;;;;5.30;4.85;;;;;;;;;;2089853;28;20257;-60
2021/07/26 00:07:28;;;;;;;4.85;4.43;;;;;;;;;;2090049;28;20191;-58
2021/07/26 00:08:28;;;;;;;4.63;4.30;;;;;;;;;;2095038;28;20617;-56
2021/07/26 00:09:28;;;;;;;4.30;4.00;;;;;;;;;;2098949;28;20233;-55
2021/07/26 00:10:28;;;;;;;5.20;4.75;;;;;;;;;;2099077;28;20175;-54
2021/07/26 00:11:29;;;;;;;4.53;4.13;;;;;;;;;;2098699;28;20182;-58
2021/07/26 00:12:29;;;;;;;4.95;4.55;;;;;;;;;;2098408;28;20749;-59
2021/07/26 00:13:29;;;;;;;6.18;4.47;;;;;;;;;;2092639;28;20195;-60
2021/07/26 00:14:30;;;;;;;4.88;4.47;;;;;;;;;;2090467;28;20199;-56
2021/07/26 00:15:30;;;;;;;4.63;4.32;;;;;;;;;;2092534;28;20186;-54
2021/07/26 00:16:30;;;;;;;5.88;5.43;;;;;;;;;;2098589;28;20174;-59
2021/07/26 00:17:31;;;;;;;5.22;4.72;;;;;;;;;;2098350;28;20171;-59
2021/07/26 00:18:31;;;;;;;5.38;4.97;;;;;;;;;;2093398;28;20544;-58
2021/07/26 00:19:31;;;;;;;5.07;4.65;;;;;;;;;;2091340;28;20187;-59
2021/07/26 00:20:32;;;;;;;5.18;4.70;;;;;;;;;;2090438;28;20739;-60
2021/07/26 00:21:32;;;;;;;7.13;4.65;;;;;;;;;;2089985;28;20267;-63
2021/07/26 00:22:32;;;;;;;5.00;4.60;;;;;;;;;;2090503;28;20160;-60
2021/07/26 00:23:32;;;;;;;4.78;4.40;;;;;;;;;;2094811;28;20167;-61
2021/07/26 00:24:32;;;;;;;4.65;4.25;;;;;;;;;;2093489;28;20180;-60
2021/07/26 00:25:33;;;;;;;5.40;4.40;;;;;;;;;;2091451;28;20175;-60
2021/07/26 00:26:33;;;;;;;6.05;4.53;;;;;;;;;;2090485;28;20167;-61
2021/07/26 00:27:33;;;;;;;5.10;4.60;;;;;;;;;;2090348;28;20213;-60
2021/07/26 00:28:34;;;;;;;4.85;4.43;;;;;;;;;;2090411;28;20521;-56
2021/07/26 00:29:34;;;;;;;5.30;4.63;;;;;;;;;;2094486;28;20215;-61
2021/07/26 00:30:35;;;;;;;5.05;4.65;;;;;;;;;;2096251;28;20210;-59
2021/07/26 00:31:35;;;;;;;7.05;4.90;;;;;;;;;;2096364;28;20166;-60
2021/07/26 00:32:35;;;;;;;4.65;4.22;;;;;;;;;;2098204;28;20233;-60
2021/07/26 00:34:00;;;;;;;5.72;4.68;;;;;;;;;;2097646;28;20173;-63
2021/07/26 00:35:00;;;;;;;5.68;5.07;;;;;;;;;;2091965;28;20160;-60
2021/07/26 00:36:01;;;;;;;6.47;5.05;;;;;;;;;;2095270;28;20250;-59
2021/07/26 00:37:04;;;;;;;5.00;4.50;;;;;;;;;;2097671;28;20218;-55
2021/07/26 00:38:04;;;;;;;4.65;4.25;;;;;;;;;;2096871;28;20576;-54
2021/07/26 00:39:06;;;;;;;4.97;4.57;;;;;;;;;;2097773;28;20262;-59
2021/07/26 00:40:10;;;;;;;5.50;5.00;;;;;;;;;;2097637;28;20207;-57
2021/07/26 00:41:10;;;;;;;5.40;4.90;;;;;;;;;;2097982;28;20163;-59
2021/07/26 00:42:10;;;;;;;5.60;5.20;;;;;;;;;;2098219;28;20643;-57
2021/07/26 00:43:10;;;;;;;5.25;4.85;;;;;;;;;;2093168;28;20233;-58
2021/07/26 00:44:11;;;;;;;5.85;5.00;;;;;;;;;;2089154;28;20167;-54
2021/07/26 00:45:11;;;;;;;5.60;5.15;;;;;;;;;;2092262;28;20540;-61
2021/07/26 00:46:11;;;;;;;5.10;4.70;;;;;;;;;;2097108;28;20186;-58
2021/07/26 00:47:12;;;;;;;4.65;4.35;;;;;;;;;;2097264;28;20163;-60
2021/07/26 00:48:12;;;;;;;4.95;4.57;;;;;;;;;;2094695;28;20221;-56
2021/07/26 00:49:14;;;;;;;5.32;4.88;;;;;;;;;;2097379;28;20651;-57
2021/07/26 00:50:14;;;;;;;5.20;4.80;;;;;;;;;;2096274;28;20189;-60
2021/07/26 00:51:14;;;;;;;5.10;4.63;;;;;;;;;;2097499;28;20173;-59
2021/07/26 00:52:15;;;;;;;5.25;4.82;;;;;;;;;;2097525;28;20170;-55
2021/07/26 00:53:16;;;;;;;5.43;5.03;;;;;;;;;;2092710;28;20193;-57
2021/07/26 00:54:20;;;;;;;5.60;4.85;;;;;;;;;;2096012;28;20185;-56
2021/07/26 00:55:20;;;;;;;5.50;5.00;;;;;;;;;;2093517;28;20198;-57
2021/07/26 00:56:21;;;;;;;4.90;4.50;;;;;;;;;;2096355;28;20765;-59
2021/07/26 00:57:21;;;;;;;5.45;4.90;;;;;;;;;;2097753;28;20616;-55
2021/07/26 00:58:21;;;;;;;6.80;5.57;;;;;;;;;;2094745;28;20172;-59
2021/07/26 00:59:22;;;;;;;5.47;5.03;;;;;;;;;;2093589;28;20179;-57
2021/07/26 01:00:22;;;;;;;5.85;5.00;;;;;;;;;;2093801;28;20214;-58
2021/07/26 01:01:23;;;;;;;5.90;5.40;;;;;;;;;;2094049;28;20677;-56
2021/07/26 01:02:23;;;;;;;7.20;5.65;;;;;;;;;;2100508;28;20694;-58
2021/07/26 01:03:24;;;;;;;6.10;5.55;;;;;;;;;;2099674;28;20258;-58
2021/07/26 01:04:24;;;;;;;6.60;5.70;;;;;;;;;;2095999;28;20206;-61
2021/07/26 01:05:24;;;;;;;5.50;5.03;;;;;;;;;;2096054;28;20195;-56
2021/07/26 01:06:25;;;;;;;5.45;4.97;;;;;;;;;;2097571;28;20554;-57
2021/07/26 01:07:25;;;;;;;5.13;4.63;;;;;;;;;;2095000;28;20305;-55
2021/07/26 01:08:25;;;;;;;5.07;4.63;;;;;;;;;;2092486;28;20170;-57
2021/07/26 01:09:26;;;;;;;5.40;4.93;;;;;;;;;;2092189;28;20185;-58
2021/07/26 01:10:26;;;;;;;4.80;4.40;;;;;;;;;;2095858;28;20195;-59
2021/07/26 01:11:26;;;;;;;6.30;5.50;;;;;;;;;;2097172;28;20186;-56
2021/07/26 01:12:27;;;;;;;5.53;5.05;;;;;;;;;;2098229;28;20183;-61
2021/07/26 01:13:28;;;;;;;5.15;4.75;;;;;;;;;;2097824;28;20228;-58
2021/07/26 01:14:29;;;;;;;5.88;5.10;;;;;;;;;;2095715;28;20200;-58
2021/07/26 01:15:29;;;;;;;6.15;5.55;;;;;;;;;;2095592;28;20163;-58
2021/07/26 01:16:30;;;;;;;6.68;5.97;;;;;;;;;;2097272;28;20174;-53
2021/07/26 01:17:51;;;;;;;6.43;5.90;;;;;;;;;;2097366;28;20182;-56
2021/07/26 01:18:51;;;;;;;6.70;5.47;;;;;;;;;;2082198;28;20208;-58
2021/07/26 01:19:52;;;;;;;5.90;5.35;;;;;;;;;;2088432;28;20219;-57
2021/07/26 01:20:52;;;;;;;5.90;5.40;;;;;;;;;;2089916;28;20310;-57
2021/07/26 01:21:53;;;;;;;5.47;5.00;;;;;;;;;;2096318;28;20179;-58
2021/07/26 01:22:53;;;;;;;5.78;5.28;;;;;;;;;;2097300;28;20724;-56
2021/07/26 01:23:53;;;;;;;6.70;5.70;;;;;;;;;;2089108;28;20179;-58
2021/07/26 01:24:54;;;;;;;8.02;5.63;;;;;;;;;;2092936;28;20174;-57
2021/07/26 01:25:54;;;;;;;6.05;5.55;;;;;;;;;;2097968;28;20163;-59
2021/07/26 01:26:54;;;;;;;6.38;5.88;;;;;;;;;;2097442;28;20186;-58
2021/07/26 01:27:54;;;;;;;6.00;5.43;;;;;;;;;;2097136;28;20186;-56
2021/07/26 01:28:56;;;;;;;6.53;5.80;;;;;;;;;;2094334;28;20167;-53
2021/07/26 01:29:56;;;;;;;6.45;5.85;;;;;;;;;;2096771;28;20741;-58
2021/07/26 01:30:57;;;;;;;6.15;5.55;;;;;;;;;;2097289;28;20155;-58
2021/07/26 01:31:57;;;;;;;6.78;6.13;;;;;;;;;;2096629;28;20698;-58
2021/07/26 01:32:58;;;;;;;6.32;5.72;;;;;;;;;;2093056;28;20256;-59
2021/07/26 01:33:58;;;;;;;6.60;5.85;;;;;;;;;;2088448;28;20171;-59
2021/07/26 01:34:58;;;;;;;6.28;5.78;;;;;;;;;;2096366;28;20189;-59
2021/07/26 01:35:59;;;;;;;5.80;5.28;;;;;;;;;;2097445;28;20162;-56
2021/07/26 01:36:59;;;;;;;7.47;6.13;;;;;;;;;;2097353;28;20171;-57
2021/07/26 01:37:59;;;;;;;6.75;5.93;;;;;;;;;;2096913;28;20689;-56
2021/07/26 01:39:00;;;;;;;6.82;6.13;;;;;;;;;;2097398;28;20171;-54
2021/07/26 01:40:00;;;;;;;7.63;6.38;;;;;;;;;;2096694;28;20183;-56
2021/07/26 01:41:02;;;;;;;6.53;5.85;;;;;;;;;;2091885;28;20262;-55
2021/07/26 01:42:04;;;;;;;6.57;6.03;;;;;;;;;;2089794;28;20159;-58
2021/07/26 01:43:05;;;;;;;6.57;5.93;;;;;;;;;;2091087;28;20176;-60
2021/07/26 01:44:13;;;;;;;6.68;5.95;;;;;;;;;;2098135;28;20258;-56
2021/07/26 01:45:13;;;;;;;7.20;6.50;;;;;;;;;;2097977;28;20655;-57
2021/07/26 01:46:13;;;;;;;9.80;5.88;;;;;;;;;;2098078;28;20179;-56
2021/07/26 01:47:15;;;;;;;7.50;6.07;;;;;;;;;;2098163;28;20170;-56
2021/07/26 01:48:21;;;;;;;6.97;6.38;;;;;;;;;;2077817;28;20161;-58
2021/07/26 01:49:27;;;;;;;6.47;5.88;;;;;;;;;;2073955;28;20177;-59
2021/07/26 01:50:29;;;;;;;6.40;5.78;;;;;;;;;;2089192;28;20179;-58
2021/07/26 01:51:37;;;;;;;6.03;5.60;;;;;;;;;;2081481;28;20164;-58
2021/07/26 01:52:38;;;;;;;6.78;6.07;;;;;;;;;;2089920;28;20207;-57
2021/07/26 01:53:40;;;;;;;5.75;5.25;;;;;;;;;;2096961;28;20220;-57
2021/07/26 01:54:41;;;;;;;6.68;5.97;;;;;;;;;;2097751;28;20167;-57
2021/07/26 01:55:41;;;;;;;6.82;6.15;;;;;;;;;;2089689;28;20250;-58
2021/07/26 01:56:41;;;;;;;6.00;5.50;;;;;;;;;;2089773;28;20674;-59
2021/07/26 01:57:42;;;;;;;6.70;6.05;;;;;;;;;;2090160;28;20201;-55
2021/07/26 01:58:43;;;;;;;5.72;5.22;;;;;;;;;;2097001;28;20217;-56
2021/07/26 01:59:43;;;;;;;6.10;5.50;;;;;;;;;;2096751;28;20221;-59
2021/07/26 02:00:43;;;;;;;6.18;5.10;;;;;;;;;;2097005;28;20248;-58
2021/07/26 02:01:44;;;;;;;5.47;5.07;;;;;;;;;;2096591;28;20628;-58
2021/07/26 02:02:44;;;;;;;6.10;5.53;;;;;;;;;;2088173;28;20188;-61
2021/07/26 02:03:44;;;;;;;5.28;4.88;;;;;;;;;;2095772;28;20181;-54
2021/07/26 02:04:44;;;;;;;6.15;5.53;;;;;;;;;;2092826;28;20195;-59
2021/07/26 02:05:45;;;;;;;6.00;5.38;;;;;;;;;;2097038;28;20171;-53
2021/07/26 02:06:45;;;;;;;6.75;5.43;;;;;;;;;;2094138;28;20708;-56
2021/07/26 02:07:45;;;;;;;5.38;4.90;;;;;;;;;;2096921;28;20628;-54
2021/07/26 02:08:45;;;;;;;5.45;5.05;;;;;;;;;;2096619;28;20206;-56
2021/07/26 02:09:46;;;;;;;6.20;5.60;;;;;;;;;;2096906;28;20183;-55
2021/07/26 02:10:46;;;;;;;5.82;5.00;;;;;;;;;;2092160;28;20178;-56
2021/07/26 02:11:46;;;;;;;5.97;5.38;;;;;;;;;;2096617;28;20167;-56
2021/07/26 02:12:46;;;;;;;5.65;5.15;;;;;;;;;;2094465;28;20172;-61
2021/07/26 02:13:47;;;;;;;6.88;5.28;;;;;;;;;;2100077;28;20193;-60
2021/07/26 02:14:47;;;;;;;6.60;5.60;;;;;;;;;;2094835;28;20185;-60
2021/07/26 02:15:48;;;;;;;5.53;5.07;;;;;;;;;;2098130;28;20734;-54
2021/07/26 02:16:52;;;;;;;5.35;4.85;;;;;;;;;;2095930;28;20195;-51
2021/07/26 02:17:52;;;;;;;5.65;5.15;;;;;;;;;;2096135;28;20179;-55
2021/07/26 02:18:52;;;;;;;5.40;5.00;;;;;;;;;;2097180;28;20194;-53
2021/07/26 02:19:53;;;;;;;5.03;4.63;;;;;;;;;;2090779;28;20195;-56
2021/07/26 02:20:53;;;;;;;5.55;5.10;;;;;;;;;;2096865;28;20174;-57
2021/07/26 02:21:53;;;;;;;6.95;5.65;;;;;;;;;;2096658;28;20659;-58
2021/07/26 02:22:53;;;;;;;5.80;5.30;;;;;;;;;;2088250;28;20672;-62
2021/07/26 02:23:54;;;;;;;5.57;5.15;;;;;;;;;;2096064;28;20192;-55
2021/07/26 02:24:54;;;;;;;5.55;5.05;;;;;;;;;;2096128;28;20670;-57
2021/07/26 02:25:54;;;;;;;5.30;4.90;;;;;;;;;;2096245;28;20254;-58
2021/07/26 02:26:55;;;;;;;5.88;5.30;;;;;;;;;;2090790;28;20179;-53
2021/07/26 02:27:55;;;;;;;6.20;5.68;;;;;;;;;;2096395;28;20689;-58
2021/07/26 02:28:55;;;;;;;5.80;5.22;;;;;;;;;;2096587;28;20546;-59
2021/07/26 02:29:55;;;;;;;5.53;5.10;;;;;;;;;;2097441;28;20183;-58
2021/07/26 02:30:56;;;;;;;5.70;5.20;;;;;;;;;;2096178;28;20272;-56
2021/07/26 02:31:56;;;;;;;7.07;5.50;;;;;;;;;;2093305;28;20667;-57
2021/07/26 02:32:56;;;;;;;7.07;6.03;;;;;;;;;;2096270;28;20175;-55
2021/07/26 02:33:56;;;;;;;6.38;5.72;;;;;;;;;;2090824;28;20181;-53
2021/07/26 02:34:57;;;;;;;6.20;5.13;;;;;;;;;;2097542;28;20171;-56
2021/07/26 02:35:57;;;;;;;5.75;5.25;;;;;;;;;;2095771;28;20718;-54
2021/07/26 02:36:57;;;;;;;5.82;5.35;;;;;;;;;;2097711;28;20180;-57
2021/07/26 02:37:58;;;;;;;6.57;5.95;;;;;;;;;;2096118;28;20648;-52
2021/07/26 02:38:58;;;;;;;6.70;6.10;;;;;;;;;;2096482;28;20370;-55
2021/07/26 02:39:59;;;;;;;7.07;6.43;;;;;;;;;;2097023;28;20278;-56
2021/07/26 02:41:09;;;;;;;6.32;5.82;;;;;;;;;;2091647;28;20176;-56
2021/07/26 02:42:10;;;;;;;6.35;5.82;;;;;;;;;;2098141;28;20174;-54
2021/07/26 02:43:10;;;;;;;6.28;5.78;;;;;;;;;;2095917;28;20220;-55
2021/07/26 02:44:10;;;;;;;6.35;5.75;;;;;;;;;;2093052;28;20167;-58
2021/07/26 02:45:11;;;;;;;6.30;5.78;;;;;;;;;;2098672;28;20191;-56
2021/07/26 02:46:11;;;;;;;6.70;6.10;;;;;;;;;;2097841;28;20618;-56
2021/07/26 02:47:11;;;;;;;6.28;5.78;;;;;;;;;;2091712;28;20277;-53
2021/07/26 02:48:11;;;;;;;6.15;5.55;;;;;;;;;;2095198;28;20179;-55
2021/07/26 02:49:12;;;;;;;6.13;5.63;;;;;;;;;;2090940;28;20168;-56
2021/07/26 02:50:12;;;;;;;6.70;6.07;;;;;;;;;;2091714;28;20595;-54
2021/07/26 02:51:13;;;;;;;6.55;5.97;;;;;;;;;;2098083;28;20191;-57
2021/07/26 02:52:13;;;;;;;6.60;6.10;;;;;;;;;;2095703;28;20170;-59
2021/07/26 02:53:13;;;;;;;6.15;5.60;;;;;;;;;;2093926;28;20273;-59
2021/07/26 02:54:14;;;;;;;6.75;6.15;;;;;;;;;;2095522;28;20201;-58
2021/07/26 02:55:14;;;;;;;8.05;7.07;;;;;;;;;;2099807;28;20167;-51
2021/07/26 02:56:14;;;;;;;6.85;6.20;;;;;;;;;;2099736;28;20187;-55
2021/07/26 02:57:14;;;;;;;7.20;6.50;;;;;;;;;;2095462;28;20167;-55
2021/07/26 02:58:15;;;;;;;6.97;6.30;;;;;;;;;;2095189;28;20194;-55
2021/07/26 02:59:15;;;;;;;5.97;5.45;;;;;;;;;;2095193;28;20266;-60
2021/07/26 03:00:15;;;;;;;6.72;6.05;;;;;;;;;;2099314;28;20206;-59
2021/07/26 03:01:18;;;;;;;6.65;5.97;;;;;;;;;;2099542;28;20606;-58
2021/07/26 03:02:18;;;;;;;5.82;5.43;;;;;;;;;;2095931;28;20636;-55
2021/07/26 03:03:18;;;;;;;6.28;5.78;;;;;;;;;;2096788;28;20167;-55
2021/07/26 03:04:19;;;;;;;7.07;6.22;;;;;;;;;;2097148;28;20225;-58
2021/07/26 03:05:19;;;;;;;7.15;6.15;;;;;;;;;;2094419;28;20490;-58
2021/07/26 03:06:21;;;;;;;7.32;6.60;;;;;;;;;;2092155;28;20171;-59
2021/07/26 03:07:21;;;;;;;7.03;5.88;;;;;;;;;;2098780;28;20159;-58
2021/07/26 03:08:22;;;;;;;6.75;6.25;;;;;;;;;;2093961;28;20540;-58
2021/07/26 03:09:22;;;;;;;6.97;6.32;;;;;;;;;;2094816;28;20179;-61
2021/07/26 03:10:22;;;;;;;7.45;6.80;;;;;;;;;;2097396;28;20171;-60
2021/07/26 03:11:22;;;;;;;7.28;6.63;;;;;;;;;;2095086;28;20706;-58
2021/07/26 03:12:23;;;;;;;8.70;6.78;;;;;;;;;;2092847;28;20171;-54
2021/07/26 03:13:23;;;;;;;6.97;6.38;;;;;;;;;;2095075;28;20174;-53
2021/07/26 03:14:23;;;;;;;6.78;6.18;;;;;;;;;;2096107;28;20199;-56
2021/07/26 03:15:23;;;;;;;7.18;6.55;;;;;;;;;;2094558;28;20206;-55
2021/07/26 03:16:24;;;;;;;6.53;5.93;;;;;;;;;;2095200;28;20185;-55
2021/07/26 03:17:27;;;;;;;6.25;5.65;;;;;;;;;;2098734;28;20262;-56
2021/07/26 03:18:27;;;;;;;7.50;6.80;;;;;;;;;;2099007;28;20181;-58
2021/07/26 03:19:27;;;;;;;6.90;6.28;;;;;;;;;;2099063;28;20203;-56
2021/07/26 03:20:28;;;;;;;7.68;6.97;;;;;;;;;;2098094;28;20277;-57
2021/07/26 03:21:28;;;;;;;7.50;6.80;;;;;;;;;;2095849;28;20262;-57
2021/07/26 03:22:47;;;;;;;7.28;6.57;;;;;;;;;;2095938;28;20640;-58
2021/07/26 03:23:47;;;;;;;8.32;6.75;;;;;;;;;;2090607;28;20219;-57
2021/07/26 03:24:47;;;;;;;7.03;6.43;;;;;;;;;;2089585;28;20229;-56
2021/07/26 03:25:47;;;;;;;7.18;6.57;;;;;;;;;;2091429;28;20175;-54
2021/07/26 03:26:48;;;;;;;6.85;6.25;;;;;;;;;;2097725;28;20269;-55
2021/07/26 03:27:48;;;;;;;7.20;6.55;;;;;;;;;;2098982;28;20174;-54
2021/07/26 03:28:48;;;;;;;8.65;6.95;;;;;;;;;;2098248;28;20678;-55
2021/07/26 03:29:49;;;;;;;7.22;6.53;;;;;;;;;;2098226;28;20628;-57
2021/07/26 03:30:49;;;;;;;6.90;6.35;;;;;;;;;;2098160;28;20596;-57
2021/07/26 03:31:49;;;;;;;7.55;6.85;;;;;;;;;;2098609;28;20166;-56
2021/07/26 03:32:50;;;;;;;8.57;6.80;;;;;;;;;;2094340;28;20265;-57
2021/07/26 03:33:50;;;;;;;7.13;6.30;;;;;;;;;;2099402;28;20171;-52
2021/07/26 03:34:50;;;;;;;7.18;6.45;;;;;;;;;;2100306;28;20622;-51
2021/07/26 03:35:50;;;;;;;8.20;6.55;;;;;;;;;;2094545;28;20224;-51
2021/07/26 03:36:51;;;;;;;7.80;6.63;;;;;;;;;;2098383;28;20179;-55
2021/07/26 03:37:52;;;;;;;7.45;6.82;;;;;;;;;;2098001;28;20169;-55
2021/07/26 03:38:52;;;;;;;7.53;6.75;;;;;;;;;;2097758;28;20656;-55
2021/07/26 03:39:53;;;;;;;11.30;7.03;;;;;;;;;;2097601;28;20191;-56
2021/07/26 03:40:53;;;;;;;7.00;6.40;;;;;;;;;;2097429;28;20738;-57
2021/07/26 03:41:56;;;;;;;7.50;6.80;;;;;;;;;;2096486;28;20186;-54
2021/07/26 03:42:56;;;;;;;7.20;6.53;;;;;;;;;;2097105;28;20170;-54
2021/07/26 03:43:57;;;;;;;7.13;6.60;;;;;;;;;;2089832;28;20187;-57
2021/07/26 03:44:57;;;;;;;7.40;6.70;;;;;;;;;;2097361;28;20179;-57
2021/07/26 03:45:57;;;;;;;8.60;6.18;;;;;;;;;;2098094;28;20171;-58
2021/07/26 03:46:58;;;;;;;7.15;6.47;;;;;;;;;;2098377;28;20210;-56
2021/07/26 03:47:59;;;;;;;7.95;7.15;;;;;;;;;;2091937;28;20199;-56
2021/07/26 03:49:00;;;;;;;7.55;6.75;;;;;;;;;;2091860;28;20194;-57
2021/07/26 03:50:00;;;;;;;7.00;6.40;;;;;;;;;;2097376;28;20191;-54
2021/07/26 03:51:00;;;;;;;7.43;5.75;;;;;;;;;;2098268;28;20179;-55
2021/07/26 03:52:00;;;;;;;7.18;6.18;;;;;;;;;;2097026;28;20183;-57
2021/07/26 03:53:01;;;;;;;6.43;5.90;;;;;;;;;;2096444;28;20171;-59
2021/07/26 03:54:01;;;;;;;7.00;6.30;;;;;;;;;;2096847;28;20166;-58
2021/07/26 03:55:01;;;;;;;6.43;5.63;;;;;;;;;;2090513;28;20658;-56
2021/07/26 03:56:02;;;;;;;8.02;6.03;;;;;;;;;;2097484;28;20167;-57
2021/07/26 03:57:02;;;;;;;6.22;5.63;;;;;;;;;;2098256;28;20159;-58
2021/07/26 03:58:03;;;;;;;7.13;6.43;;;;;;;;;;2097467;28;20691;-55
2021/07/26 03:59:03;;;;;;;7.18;6.28;;;;;;;;;;2093802;28;20172;-57
2021/07/26 04:00:04;;;;;;;8.45;6.68;;;;;;;;;;2094222;28;20202;-55
2021/07/26 04:01:12;;;;;;;6.55;5.90;;;;;;;;;;2097268;28;20172;-57
2021/07/26 04:02:12;;;;;;;6.90;5.82;;;;;;;;;;2095710;28;20211;-55
2021/07/26 04:04:17;;;;;;;6.55;5.93;;;;;;;;;;2091292;28;20172;-53
2021/07/26 04:05:27;;;;;;;6.82;6.22;;;;;;;;;;2093837;28;20198;-56
2021/07/26 04:06:27;;;;;;;6.38;5.80;;;;;;;;;;2096201;28;20202;-58
2021/07/26 04:07:31;;;;;;;6.72;5.80;;;;;;;;;;2090420;28;20190;-58
2021/07/26 04:08:35;;;;;;;7.10;5.82;;;;;;;;;;2098019;28;20170;-60
2021/07/26 04:09:43;;;;;;;8.73;6.03;;;;;;;;;;2100995;28;20198;-61
2021/07/26 04:10:48;;;;;;;5.97;5.40;;;;;;;;;;2101695;28;20210;-59
2021/07/26 04:11:55;;;;;;;5.78;5.28;;;;;;;;;;2092937;28;20191;-57
2021/07/26 04:12:55;;;;;;;6.47;5.68;;;;;;;;;;2092570;28;20531;-56
2021/07/26 04:14:04;;;;;;;6.13;5.63;;;;;;;;;;2097396;28;20178;-56
2021/07/26 04:15:09;;;;;;;6.47;5.88;;;;;;;;;;2096454;28;20221;-51
2021/07/26 04:16:09;;;;;;;5.55;5.15;;;;;;;;;;2097012;28;20171;-53
2021/07/26 04:17:10;;;;;;;6.45;5.85;;;;;;;;;;2096914;28;20179;-55
2021/07/26 04:18:10;;;;;;;5.85;5.35;;;;;;;;;;2097751;28;20223;-54
2021/07/26 04:19:11;;;;;;;6.90;5.50;;;;;;;;;;2094468;28;20708;-56
2021/07/26 04:20:12;;;;;;;6.55;5.95;;;;;;;;;;2092067;28;20253;-54
2021/07/26 04:21:12;;;;;;;5.70;5.15;;;;;;;;;;2094111;28;20206;-56
2021/07/26 04:22:12;;;;;;;6.22;5.63;;;;;;;;;;2092945;28;20190;-56
2021/07/26 04:23:13;;;;;;;5.78;5.28;;;;;;;;;;2097759;28;20174;-55
2021/07/26 04:24:13;;;;;;;6.05;5.38;;;;;;;;;;2097499;28;20199;-56
2021/07/26 04:25:13;;;;;;;6.22;5.72;;;;;;;;;;2097966;28;20244;-53
2021/07/26 04:26:13;;;;;;;5.40;4.90;;;;;;;;;;2097545;28;20221;-55
2021/07/26 04:27:14;;;;;;;6.22;5.47;;;;;;;;;;2094681;28;20187;-57
2021/07/26 04:28:14;;;;;;;6.28;5.28;;;;;;;;;;2094205;28;20692;-54
2021/07/26 04:29:15;;;;;;;8.20;6.05;;;;;;;;;;2097583;28;20636;-54
2021/07/26 04:30:15;;;;;;;5.95;5.45;;;;;;;;;;2094273;28;20551;-56
2021/07/26 04:31:16;;;;;;;5.63;5.03;;;;;;;;;;2092958;28;20174;-54
2021/07/26 04:32:16;;;;;;;5.82;5.32;;;;;;;;;;2097506;28;20643;-56
2021/07/26 04:33:16;;;;;;;5.55;5.10;;;;;;;;;;2097068;28;20279;-58
2021/07/26 04:34:17;;;;;;;6.05;5.45;;;;;;;;;;2097503;28;20826;-56
2021/07/26 04:35:17;;;;;;;6.22;4.88;;;;;;;;;;2097967;28;20672;-58
2021/07/26 04:36:17;;;;;;;9.38;5.45;;;;;;;;;;2097092;28;20712;-60
2021/07/26 04:37:17;;;;;;;5.93;5.30;;;;;;;;;;2097315;28;20258;-58
2021/07/26 04:38:18;;;;;;;5.68;4.90;;;;;;;;;;2098337;28;20255;-55
2021/07/26 04:39:18;;;;;;;5.63;5.13;;;;;;;;;;2098537;28;20185;-56
2021/07/26 04:40:18;;;;;;;5.60;5.10;;;;;;;;;;2098421;28;20199;-57
2021/07/26 04:41:18;;;;;;;5.90;5.30;;;;;;;;;;2098023;28;20159;-55
2021/07/26 04:42:19;;;;;;;6.03;5.45;;;;;;;;;;2098443;28;20768;-58
2021/07/26 04:43:19;;;;;;;6.30;5.28;;;;;;;;;;2098588;28;20891;-59
2021/07/26 04:44:19;;;;;;;6.22;5.60;;;;;;;;;;2097714;28;20181;-56
2021/07/26 04:45:19;;;;;;;6.90;4.90;;;;;;;;;;2091459;28;20179;-57
2021/07/26 04:46:20;;;;;;;5.82;5.22;;;;;;;;;;2089444;28;20234;-53
2021/07/26 04:47:20;;;;;;;7.68;5.88;;;;;;;;;;2089623;28;20199;-59
2021/07/26 04:48:20;;;;;;;5.75;5.25;;;;;;;;;;2090006;28;20271;-58
2021/07/26 04:49:23;;;;;;;6.18;5.57;;;;;;;;;;2089686;28;20167;-55
2021/07/26 04:50:23;;;;;;;5.10;4.70;;;;;;;;;;2081418;28;20679;-53
2021/07/26 04:51:23;;;;;;;5.57;5.07;;;;;;;;;;2089250;28;20167;-55
2021/07/26 04:52:23;;;;;;;5.75;5.25;;;;;;;;;;2090152;28;20824;-53
2021/07/26 04:53:24;;;;;;;5.10;4.70;;;;;;;;;;2090337;28;20175;-57
2021/07/26 04:54:24;;;;;;;5.40;4.90;;;;;;;;;;2090923;28;20197;-54
2021/07/26 04:55:25;;;;;;;7.05;5.68;;;;;;;;;;2094886;28;20170;-55
2021/07/26 04:56:26;;;;;;;6.68;5.20;;;;;;;;;;2096762;28;20274;-57
2021/07/26 04:57:26;;;;;;;6.88;6.18;;;;;;;;;;2094985;28;20648;-53
2021/07/26 04:58:26;;;;;;;8.80;7.95;;;;;;;;;;2093738;28;20179;-54
2021/07/26 04:59:27;;;;;;;6.50;5.72;;;;;;;;;;2097905;28;20187;-56
2021/07/26 05:00:29;;;;;;;8.05;5.53;;;;;;;;;;2095738;28;20192;-59
2021/07/26 05:01:29;;;;;;;5.80;5.30;;;;;;;;;;2097256;28;20179;-57
2021/07/26 05:02:29;;;;;;;7.35;5.30;;;;;;;;;;2097158;28;20202;-56
2021/07/26 05:03:30;;;;;;;5.20;4.60;;;;;;;;;;2097934;28;20179;-54
2021/07/26 05:04:30;;;;;;;5.43;4.88;;;;;;;;;;2096673;28;20167;-53
2021/07/26 05:05:33;;;;;;;5.90;5.35;;;;;;;;;;2098374;28;20179;-55
2021/07/26 05:06:34;;;;;;;5.35;4.93;;;;;;;;;;2097504;28;20170;-53
2021/07/26 05:07:35;;;;;;;5.95;5.43;;;;;;;;;;2098259;28;20175;-57
2021/07/26 05:08:35;;;;;;;6.07;5.47;;;;;;;;;;2097470;28;20159;-52
2021/07/26 05:09:37;;;;;;;5.45;5.00;;;;;;;;;;2096878;28;20311;-51
2021/07/26 05:10:37;;;;;;;7.15;6.45;;;;;;;;;;2097378;28;20173;-56
2021/07/26 05:11:40;;;;;;;7.10;6.40;;;;;;;;;;2096941;28;20713;-55
2021/07/26 05:12:42;;;;;;;8.07;7.07;;;;;;;;;;2088067;28;20206;-54
2021/07/26 05:13:42;;;;;;;7.60;5.75;;;;;;;;;;2091399;28;20262;-53
2021/07/26 05:14:43;;;;;;;8.63;6.45;;;;;;;;;;2093084;28;20535;-56
2021/07/26 05:15:43;;;;;;;7.03;5.63;;;;;;;;;;2092921;28;20229;-56
2021/07/26 05:16:45;;;;;;;7.00;5.30;;;;;;;;;;2096988;28;20856;-55
2021/07/26 05:17:45;;;;;;;6.28;4.80;;;;;;;;;;2096937;28;20178;-56
2021/07/26 05:18:45;;;;;;;7.03;4.80;;;;;;;;;;2097016;28;20187;-54
2021/07/26 05:19:46;;;;;;;4.50;4.20;;;;;;;;;;2096627;28;20211;-51
2021/07/26 05:20:46;;;;;;;6.18;4.97;;;;;;;;;;2097897;28;20212;-59
2021/07/26 05:21:46;;;;;;;5.38;4.88;;;;;;;;;;2096882;28;20186;-60
2021/07/26 05:22:46;;;;;;;5.20;4.70;;;;;;;;;;2089319;28;20218;-56
2021/07/26 05:23:47;;;;;;;5.72;4.95;;;;;;;;;;2088780;28;20232;-55
2021/07/26 05:24:47;;;;;;;5.18;4.68;;;;;;;;;;2096961;28;20163;-57
2021/07/26 05:25:47;;;;;;;5.70;4.85;;;;;;;;;;2095214;28;20182;-59
2021/07/26 05:26:55;;;;;;;5.65;4.80;;;;;;;;;;2086789;28;20738;-59
2021/07/26 05:27:55;;;;;;;4.88;4.47;;;;;;;;;;2087934;28;20183;-57
2021/07/26 05:28:56;;;;;;;5.05;4.55;;;;;;;;;;2086447;28;20167;-56
2021/07/26 05:29:56;;;;;;;6.07;5.03;;;;;;;;;;2088576;28;20190;-53
2021/07/26 05:30:56;;;;;;;6.00;5.45;;;;;;;;;;2088324;28;20206;-56
2021/07/26 05:31:58;;;;;;;6.85;5.57;;;;;;;;;;2096816;28;20179;-55
2021/07/26 05:32:58;;;;;;;5.47;4.97;;;;;;;;;;2097545;28;20726;-55
2021/07/26 05:33:59;;;;;;;7.35;5.40;;;;;;;;;;2101692;28;20178;-57
2021/07/26 05:34:59;;;;;;;5.65;5.00;;;;;;;;;;2091851;28;20180;-59
2021/07/26 05:35:59;;;;;;;5.68;5.07;;;;;;;;;;2097830;28;20182;-60
2021/07/26 05:37:00;;;;;;;7.43;6.65;;;;;;;;;;2094551;28;20167;-60
2021/07/26 05:38:03;;;;;;;5.45;4.60;;;;;;;;;;2097318;28;20631;-58
2021/07/26 05:39:04;;;;;;;5.32;4.75;;;;;;;;;;2093920;28;20576;-57
2021/07/26 05:40:05;;;;;;;4.85;4.43;;;;;;;;;;2092146;28;20223;-60
2021/07/26 05:41:06;;;;;;;5.47;4.38;;;;;;;;;;2095343;28;20186;-57
2021/07/26 05:42:10;;;;;;;4.85;4.15;;;;;;;;;;2100449;28;20159;-54
2021/07/26 05:43:10;;;;;;;5.80;4.80;;;;;;;;;;2093415;28;20173;-58
2021/07/26 05:44:12;;;;;;;4.53;4.13;;;;;;;;;;2095697;28;20281;-58
2021/07/26 05:45:12;;;;;;;4.20;3.90;;;;;;;;;;2093372;28;20262;-59
2021/07/26 05:46:12;;;;;;;5.05;4.05;;;;;;;;;;2097009;28;20175;-54
2021/07/26 05:47:12;;;;;;;5.85;4.38;;;;;;;;;;2094038;28;20168;-56
2021/07/26 05:48:13;;;;;;;5.25;4.20;;;;;;;;;;2097899;28;20180;-57
2021/07/26 05:49:13;;;;;;;4.38;3.97;;;;;;;;;;2096575;28;20181;-57
2021/07/26 05:50:13;;;;;;;5.82;4.57;;;;;;;;;;2093721;28;20182;-58
2021/07/26 05:51:13;;;;;;;4.50;4.10;;;;;;;;;;2091842;28;20221;-59
2021/07/26 05:52:14;;;;;;;4.97;4.57;;;;;;;;;;2097345;28;20212;-59
2021/07/26 05:53:14;;;;;;;4.53;4.13;;;;;;;;;;2096981;28;20662;-59
2021/07/26 05:54:14;;;;;;;4.90;3.90;;;;;;;;;;2094273;28;20238;-60
2021/07/26 05:55:15;;;;;;;4.80;4.15;;;;;;;;;;2097195;28;20171;-59
2021/07/26 05:56:15;;;;;;;5.20;4.75;;;;;;;;;;2095358;28;20241;-58
2021/07/26 05:57:17;;;;;;;5.32;4.30;;;;;;;;;;2091352;28;20175;-59
2021/07/26 05:58:17;;;;;;;4.50;4.03;;;;;;;;;;2092038;28;20209;-58
2021/07/26 05:59:19;;;;;;;4.53;4.22;;;;;;;;;;2093272;28;20257;-58
2021/07/26 06:00:35;;;;;;;5.28;4.00;;;;;;;;;;2092599;28;20245;-59
2021/07/26 06:01:46;;;;;;;4.53;4.13;;;;;;;;;;2093051;28;20175;-58
2021/07/26 06:02:46;;;;;;;5.22;4.18;;;;;;;;;;2092355;28;20194;-59
2021/07/26 06:03:47;;;;;;;4.72;4.15;;;;;;;;;;2092249;28;20186;-60
2021/07/26 06:04:47;;;;;;;4.53;4.13;;;;;;;;;;2094067;28;20183;-59
2021/07/26 06:05:48;;;;;;;5.25;4.03;;;;;;;;;;2093208;28;20186;-59
2021/07/26 06:06:49;;;;;;;4.47;3.92;;;;;;;;;;2094591;28;20222;-59